createdAt,value
2022-08-26T08:10:43.624Z,16.97
2022-08-26T09:06:50.101Z,9.97
2022-08-26T09:10:09.215Z,16.53
2022-08-26T09:13:26.142Z,10.03
2022-08-26T09:16:25.359Z,14.80
2022-08-26T09:22:49.635Z,8.73
2022-08-26T09:25:18.610Z,14.33
2022-08-26T09:27:51.432Z,11.20
2022-08-26T09:30:34.477Z,8.27
2022-08-26T09:33:03.253Z,13.57
2022-08-26T09:35:39.669Z,9.70
2022-08-26T09:38:28.144Z,8.37
2022-08-26T09:41:01.781Z,7.13
2022-08-26T09:43:29.595Z,8.70
2022-08-26T09:46:14.078Z,5.57
2022-08-26T09:48:43.084Z,6.37
2022-08-26T09:51:26.353Z,7.13
2022-08-26T09:53:56.561Z,8.00
2022-08-26T09:56:35.481Z,10.47
2022-08-26T09:59:04.887Z,13.87
2022-08-26T10:01:43.879Z,7.60
2022-08-26T10:04:20.405Z,12.10
2022-08-26T10:07:07.350Z,12.27
2022-08-26T10:09:43.429Z,14.90
2022-08-26T10:12:21.480Z,10.20
2022-08-26T10:14:54.066Z,13.50
2022-08-26T10:18:04.122Z,9.90
2022-08-26T10:20:46.179Z,23.07
2022-08-26T10:23:42.680Z,19.43
2022-08-26T10:30:17.488Z,15.07
2022-08-26T10:40:31.936Z,14.20
2022-08-26T10:44:01.670Z,18.07
2022-08-26T10:47:21.034Z,15.20
2022-08-26T10:50:13.239Z,14.17
2022-08-26T11:00:22.013Z,14.90
2022-08-26T11:07:33.629Z,10.93
2022-08-26T11:10:07.143Z,19.73
2022-08-26T11:12:37.362Z,19.83
2022-08-26T11:19:59.614Z,19.40
2022-08-26T11:21:57.454Z,15.10
2022-08-26T11:23:08.772Z,19.97
2022-08-26T11:26:03.240Z,15.13
2022-08-26T11:29:01.446Z,20.20
2022-08-26T11:31:30.808Z,15.53
2022-08-26T11:34:10.933Z,19.30
2022-08-26T11:36:46.777Z,15.40
2022-08-26T11:39:19.546Z,8.70
2022-08-26T11:41:48.888Z,16.43
2022-08-26T11:44:25.726Z,14.83
2022-08-26T11:46:54.832Z,16.00
2022-08-26T11:49:22.334Z,13.03
2022-08-26T11:51:49.174Z,14.13
2022-08-26T11:54:35.093Z,8.20
2022-08-26T11:57:07.947Z,8.17
2022-08-26T11:59:40.545Z,5.67
2022-08-26T12:02:18.122Z,8.90
2022-08-26T12:04:49.059Z,9.00
2022-08-26T12:07:18.506Z,7.80
2022-08-26T12:09:58.093Z,9.57
2022-08-26T12:12:42.501Z,6.17
2022-08-26T12:15:22.769Z,13.20
2022-08-26T12:17:54.512Z,7.13
2022-08-26T12:20:48.908Z,6.20
2022-08-26T12:23:22.855Z,5.73
2022-08-26T12:25:54.111Z,7.10
2022-08-26T12:28:23.150Z,4.03
2022-08-26T12:31:05.304Z,7.27
2022-08-26T12:33:34.664Z,8.60
2022-08-26T12:36:02.824Z,7.23
2022-08-26T12:38:32.078Z,7.80
2022-08-26T12:40:58.945Z,4.90
2022-08-26T12:43:44.033Z,8.10
2022-08-26T12:46:15.972Z,9.80
2022-08-26T12:48:47.648Z,9.67
2022-08-26T12:51:26.629Z,6.00
2022-08-26T12:53:54.341Z,7.10
2022-08-26T12:56:27.900Z,7.53
2022-08-26T12:59:25.582Z,6.80
2022-08-26T13:01:53.652Z,9.50
2022-08-26T13:04:43.613Z,10.60
2022-08-26T13:07:18.204Z,6.30
2022-08-26T13:09:44.996Z,5.63
2022-08-26T13:12:33.329Z,7.73
2022-08-26T13:15:01.776Z,7.13
2022-08-26T13:17:29.666Z,5.60
2022-08-26T13:20:03.285Z,8.47
2022-08-26T13:22:30.958Z,6.63
2022-08-26T13:24:58.225Z,7.67
2022-08-26T13:27:26.648Z,6.83
2022-08-26T13:29:55.374Z,6.17
2022-08-26T13:32:24.771Z,8.03
2022-08-26T13:34:56.262Z,5.63
2022-08-26T13:37:24.349Z,7.50
2022-08-26T13:40:02.692Z,10.23
2022-08-26T13:42:29.801Z,5.70
2022-08-26T13:44:58.221Z,4.30
2022-08-26T13:47:26.108Z,7.27
2022-08-26T13:49:55.252Z,5.50
2022-08-26T13:52:25.505Z,4.30
2022-08-26T13:54:57.136Z,11.80
2022-08-26T13:57:24.777Z,8.07
2022-08-26T13:59:53.955Z,8.90
2022-08-26T14:02:20.845Z,4.50
2022-08-26T14:04:47.674Z,5.83
2022-08-26T14:07:15.060Z,7.73
2022-08-26T14:09:42.054Z,7.27
2022-08-26T14:12:09.037Z,3.27
2022-08-26T14:14:35.832Z,4.90
2022-08-26T14:17:02.720Z,2.10
2022-08-26T14:19:30.682Z,4.70
2022-08-26T14:21:58.901Z,3.30
2022-08-26T14:24:25.765Z,6.50
2022-08-26T14:26:52.596Z,6.00
2022-08-26T14:29:19.398Z,6.07
2022-08-26T14:31:46.362Z,3.77
2022-08-26T14:34:14.250Z,2.63
2022-08-26T14:36:41.130Z,3.40
2022-08-26T14:39:10.878Z,3.17
2022-08-26T14:41:54.062Z,5.10
2022-08-26T14:44:24.509Z,3.30
2022-08-26T14:46:53.085Z,3.93
2022-08-26T14:49:21.462Z,3.57
2022-08-26T14:51:48.425Z,3.93
2022-08-26T14:54:16.635Z,5.50
2022-08-26T14:56:56.647Z,4.13
2022-08-26T14:59:29.948Z,8.27
2022-08-26T15:01:57.387Z,4.10
2022-08-26T15:04:25.236Z,5.77
2022-08-26T15:06:54.692Z,5.97
2022-08-26T15:09:22.570Z,9.30
2022-08-26T15:11:50.429Z,13.53
2022-08-26T15:14:19.137Z,9.43
2022-08-26T15:16:48.233Z,11.47
2022-08-26T15:19:16.007Z,9.73
2022-08-26T15:21:43.498Z,11.93
2022-08-26T15:24:10.419Z,11.83
2022-08-26T15:26:37.409Z,9.07
2022-08-26T15:29:05.270Z,8.23
2022-08-26T15:31:33.523Z,10.53
2022-08-26T15:34:06.657Z,5.63
2022-08-26T15:36:37.084Z,6.00
2022-08-26T15:39:06.347Z,8.63
2022-08-26T15:41:34.953Z,7.30
2022-08-26T15:44:08.542Z,9.83
2022-08-26T15:46:36.441Z,7.13
2022-08-26T15:49:05.548Z,8.60
2022-08-26T15:51:45.870Z,9.10
2022-08-26T15:54:14.131Z,7.33
2022-08-26T15:56:41.041Z,12.63
2022-08-26T15:59:11.710Z,16.40
2022-08-26T16:01:39.331Z,10.20
2022-08-26T16:04:09.793Z,12.47
2022-08-26T16:06:39.706Z,13.03
2022-08-26T16:09:21.549Z,10.47
2022-08-26T16:19:34.831Z,11.40
2022-08-26T16:22:39.898Z,14.50
2022-08-26T16:25:34.810Z,16.97
2022-08-26T16:28:37.849Z,19.33
2022-08-26T16:35:23.510Z,19.53
2022-08-26T16:38:20.337Z,21.03
2022-08-26T16:46:04.996Z,19.50
2022-08-26T16:49:00.296Z,18.37
2022-08-26T16:55:31.840Z,16.83
2022-08-26T16:58:46.838Z,10.07
2022-08-26T18:47:38.700Z,25.10
